Time;durP1;ratioP1;P1;durP2;ratioP2;P2;SDS_P1;SDS_P2;PMS_P1;PMS_P2;Temp;Humidity;BMP_temperature;BMP_pressure;BME280_temperature;BME280_humidity;BME280_pressure;Samples;Min_cycle;Max_cycle;Signal;HPM_P1;HPM_P2
2021/06/04 00:02:19;;;;;;;3.40;3.10;;;;;;;16.54;68.18;101375.34;5005536;28;102664;-58
2021/06/04 00:05:06;;;;;;;3.83;2.88;;;;;;;16.54;68.29;101369.03;4998897;28;102289;-58
2021/06/04 00:07:53;;;;;;;3.53;3.22;;;;;;;16.53;68.41;101370.97;4984586;28;102484;-58
2021/06/04 00:10:26;;;;;;;3.05;2.85;;;;;;;16.53;68.33;101376.47;5001928;28;103982;-58
2021/06/04 00:12:54;;;;;;;3.50;3.20;;;;;;;16.53;68.62;101362.72;5008498;28;102268;-58
2021/06/04 00:15:27;;;;;;;3.67;2.92;;;;;;;16.54;68.68;101369.03;4996093;28;102083;-58
2021/06/04 00:17:54;;;;;;;2.90;2.63;;;;;;;16.54;68.47;101369.03;5004024;28;102446;-59
2021/06/04 00:20:24;;;;;;;3.47;3.08;;;;;;;16.54;68.36;101364.34;4998436;28;103952;-58
2021/06/04 00:22:53;;;;;;;2.90;2.70;;;;;;;16.53;68.66;101368.22;5005395;28;102277;-58
2021/06/04 00:25:26;;;;;;;3.40;2.85;;;;;;;16.54;68.97;101358.03;5003278;28;102484;-59
2021/06/04 00:27:54;;;;;;;3.92;2.70;;;;;;;16.53;68.56;101367.41;5005158;28;102737;-59
2021/06/04 00:30:24;;;;;;;3.80;2.80;;;;;;;16.53;68.43;101357.22;4987721;28;104051;-59
2021/06/04 00:32:50;;;;;;;3.60;2.90;;;;;;;16.53;68.42;101362.72;5005104;28;102726;-58
2021/06/04 00:35:17;;;;;;;3.20;2.90;;;;;;;16.53;68.86;101362.72;4993439;28;102011;-58
2021/06/04 00:37:44;;;;;;;3.08;2.78;;;;;;;16.53;68.86;101370.97;5003568;28;102375;-58
2021/06/04 00:40:13;;;;;;;3.33;3.03;;;;;;;16.53;68.82;101368.22;5005064;28;104060;-58
2021/06/04 00:42:41;;;;;;;3.65;2.80;;;;;;;16.53;68.69;101370.97;5007465;28;102110;-58
2021/06/04 00:45:16;;;;;;;3.03;2.80;;;;;;;16.53;68.88;101373.72;4996024;28;102381;-58
2021/06/04 00:47:44;;;;;;;3.15;2.88;;;;;;;16.54;68.82;101369.03;5005769;28;102075;-58
2021/06/04 00:50:17;;;;;;;3.40;3.10;;;;;;;16.53;68.48;101367.41;5004932;28;103994;-59
2021/06/04 00:52:47;;;;;;;3.42;3.08;;;;;;;16.53;68.77;101365.47;5005716;28;102794;-59
2021/06/04 00:55:19;;;;;;;3.38;3.08;;;;;;;16.52;68.42;101366.59;4993535;28;103109;-58
2021/06/04 00:57:46;;;;;;;3.13;2.83;;;;;;;16.53;68.64;101361.91;4983117;28;102601;-58
2021/06/04 01:00:18;;;;;;;3.00;2.70;;;;;;;16.52;68.40;101369.34;4975151;28;104260;-58
2021/06/04 01:02:46;;;;;;;2.92;2.72;;;;;;;16.54;68.54;101374.53;5004583;28;103955;-58
2021/06/04 01:05:17;;;;;;;3.13;2.85;;;;;;;16.53;68.44;101368.22;4999128;28;102583;-58
2021/06/04 01:07:57;;;;;;;3.28;2.90;;;;;;;16.53;68.65;101367.41;5006284;28;102721;-58
2021/06/04 01:10:36;;;;;;;3.40;3.10;;;;;;;16.52;68.67;101366.59;5002579;28;105804;-58
2021/06/04 01:13:12;;;;;;;2.65;2.45;;;;;;;16.53;68.62;101368.22;5000880;28;102542;-58
2021/06/04 01:16:01;;;;;;;3.57;3.07;;;;;;;16.53;68.66;101362.72;5006083;28;102461;-58
2021/06/04 01:18:48;;;;;;;2.72;2.53;;;;;;;16.53;68.56;101370.97;4990892;28;103385;-58
2021/06/04 01:21:23;;;;;;;3.83;3.05;;;;;;;16.53;68.85;101365.47;5008690;28;104017;-58
2021/06/04 01:24:08;;;;;;;2.90;2.60;;;;;;;16.51;68.75;101372.38;4992699;28;102288;-59
2021/06/04 01:26:40;;;;;;;2.95;2.75;;;;;;;16.52;68.60;101368.53;5003814;28;102372;-59
2021/06/04 01:29:12;;;;;;;3.00;2.70;;;;;;;16.53;68.64;101378.41;5000059;28;102300;-58
2021/06/04 01:31:48;;;;;;;2.95;2.65;;;;;;;16.52;68.88;101374.03;4994522;28;103078;-59
2021/06/04 01:34:21;;;;;;;3.10;2.85;;;;;;;16.50;69.12;101374.31;4987781;28;102549;-59
2021/06/04 01:36:51;;;;;;;2.50;2.30;;;;;;;16.51;68.83;101375.13;5003884;28;102525;-59
2021/06/04 01:39:21;;;;;;;2.58;2.38;;;;;;;16.51;68.78;101380.59;4982993;28;102372;-58
2021/06/04 01:41:51;;;;;;;3.20;2.90;;;;;;;16.51;68.64;101375.94;5006646;28;104123;-59
2021/06/04 01:44:24;;;;;;;3.10;2.80;;;;;;;16.51;68.68;101386.91;4991488;28;102063;-58
2021/06/04 01:46:59;;;;;;;3.65;2.60;;;;;;;16.52;69.02;101383.09;4990192;28;102596;-58
2021/06/04 01:49:28;;;;;;;3.20;2.88;;;;;;;16.51;69.11;101384.16;5005711;28;102497;-59
2021/06/04 01:51:55;;;;;;;;;;;;;;;16.51;69.07;101392.41;4998984;28;104137;-58
2021/06/04 01:54:27;;;;;;;3.95;2.80;;;;;;;16.52;68.98;101388.56;5003024;28;102205;-58
2021/06/04 01:57:03;;;;;;;3.08;2.78;;;;;;;16.51;68.89;101386.91;4992519;28;102337;-59
2021/06/04 01:59:34;;;;;;;3.88;2.88;;;;;;;16.52;69.16;101396.00;4991603;28;102491;-58
2021/06/04 02:02:02;;;;;;;2.97;2.67;;;;;;;16.51;69.04;101386.91;5000999;28;103910;-59
2021/06/04 02:04:35;;;;;;;2.97;2.75;;;;;;;16.50;69.05;101390.78;4998916;28;102280;-58
2021/06/04 02:07:04;;;;;;;3.25;2.95;;;;;;;16.50;68.96;101401.78;4999614;28;102631;-59
2021/06/04 02:09:31;;;;;;;2.83;2.63;;;;;;;16.51;68.77;101397.91;5002830;28;102728;-58
2021/06/04 02:12:00;;;;;;;3.22;2.72;;;;;;;16.51;68.69;101403.41;4996796;28;103941;-59
2021/06/04 02:14:32;;;;;;;2.90;2.70;;;;;;;16.51;68.80;101397.91;5004489;28;102379;-58
2021/06/04 02:17:14;;;;;;;2.88;2.67;;;;;;;16.51;68.67;101400.66;4999848;28;102629;-58
2021/06/04 02:19:54;;;;;;;2.95;2.65;;;;;;;16.51;69.13;101403.41;5006407;28;102233;-58
2021/06/04 02:22:26;;;;;;;3.05;2.45;;;;;;;16.51;68.77;101399.84;5004858;28;103928;-59
2021/06/04 02:25:00;;;;;;;2.70;2.47;;;;;;;16.50;68.68;101401.78;5004063;28;102378;-58
2021/06/04 02:27:33;;;;;;;3.03;2.83;;;;;;;16.49;69.23;101402.91;5002270;28;102621;-58
2021/06/04 02:30:07;;;;;;;3.10;2.90;;;;;;;16.51;69.01;101403.41;4987748;28;102028;-58
2021/06/04 02:32:41;;;;;;;2.90;2.60;;;;;;;16.52;68.70;101404.25;5002882;28;104076;-58
2021/06/04 02:35:12;;;;;;;3.08;2.78;;;;;;;16.51;68.75;101403.41;4980900;28;102797;-58
2021/06/04 02:37:43;;;;;;;5.88;3.45;;;;;;;16.51;68.72;101397.91;4998384;28;102508;-58
2021/06/04 02:40:15;;;;;;;3.20;2.65;;;;;;;16.52;68.83;101412.50;5001676;28;102644;-59
2021/06/04 02:42:46;;;;;;;3.65;2.95;;;;;;;16.52;68.59;101410.56;4993367;28;103926;-59
2021/06/04 02:45:20;;;;;;;2.80;2.53;;;;;;;16.51;69.13;101408.91;4999229;28;102619;-58
2021/06/04 02:47:50;;;;;;;2.65;2.45;;;;;;;16.51;69.05;101408.91;5001078;28;102310;-58
2021/06/04 02:50:22;;;;;;;3.03;2.45;;;;;;;16.52;69.00;101412.50;4998957;28;103294;-59
2021/06/04 02:52:49;;;;;;;2.90;2.70;;;;;;;16.51;69.05;101408.91;4992558;28;103749;-59
2021/06/04 02:55:21;;;;;;;2.83;2.63;;;;;;;16.51;69.11;101408.91;4999178;28;102922;-58
2021/06/04 02:57:49;;;;;;;2.40;2.20;;;;;;;16.51;68.68;101414.41;4995879;28;102608;-58
2021/06/04 03:00:23;;;;;;;2.50;2.30;;;;;;;16.52;69.17;101410.56;4993032;28;102564;-58
2021/06/04 03:02:49;;;;;;;2.88;2.67;;;;;;;16.52;68.99;101421.56;4999532;28;103641;-59
2021/06/04 03:05:27;;;;;;;2.67;2.47;;;;;;;16.52;68.77;101416.06;4980685;28;102506;-59
2021/06/04 03:07:54;;;;;;;2.80;2.60;;;;;;;16.53;69.07;101416.88;5004075;28;102295;-58
2021/06/04 03:10:25;;;;;;;2.95;2.40;;;;;;;16.52;68.67;101410.56;4996434;28;102280;-58
2021/06/04 03:12:55;;;;;;;2.90;2.70;;;;;;;16.51;68.95;101419.88;4998637;28;104167;-58
2021/06/04 03:15:26;;;;;;;3.38;2.30;;;;;;;16.51;68.85;101419.88;5003094;28;102322;-58
2021/06/04 03:17:52;;;;;;;2.85;2.55;;;;;;;16.52;68.92;101416.06;4995486;28;102377;-59
2021/06/04 03:20:27;;;;;;;2.70;2.50;;;;;;;16.53;68.90;101412.19;5004301;28;102101;-59
2021/06/04 03:22:54;;;;;;;2.28;2.13;;;;;;;16.54;68.78;101419.31;5006157;28;103712;-58
2021/06/04 03:25:27;;;;;;;2.92;2.58;;;;;;;16.53;69.02;101417.69;4997538;28;102203;-58
2021/06/04 03:27:56;;;;;;;2.65;2.45;;;;;;;16.53;68.96;101423.19;5002779;28;102431;-58
2021/06/04 03:30:28;;;;;;;2.15;2.00;;;;;;;16.55;68.65;101422.88;5002564;28;101979;-58
2021/06/04 03:32:55;;;;;;;3.55;2.63;;;;;;;16.54;69.03;101421.25;5000488;28;103818;-59
2021/06/04 03:35:23;;;;;;;2.90;2.70;;;;;;;16.54;68.55;101419.31;5003767;28;102198;-58
2021/06/04 03:37:49;;;;;;;2.60;2.40;;;;;;;16.55;68.75;101414.63;4985726;28;102602;-59
2021/06/04 03:40:21;;;;;;;2.95;2.65;;;;;;;16.54;68.93;101411.06;4993214;28;102414;-58
2021/06/04 03:42:48;;;;;;;2.47;2.28;;;;;;;16.55;69.00;101415.47;5000754;28;104206;-58
2021/06/04 03:45:20;;;;;;;4.88;2.20;;;;;;;16.55;68.87;101412.72;4998802;28;104102;-58
2021/06/04 03:47:47;;;;;;;3.13;2.20;;;;;;;16.55;68.68;101414.63;5001353;28;102336;-58
2021/06/04 03:50:14;;;;;;;2.67;2.47;;;;;;;16.55;68.94;101409.97;5006240;28;102190;-58
2021/06/04 03:52:42;;;;;;;2.50;2.30;;;;;;;16.56;68.70;101411.59;4999513;28;104012;-59
2021/06/04 03:55:14;;;;;;;2.58;2.25;;;;;;;16.55;69.11;101420.97;4996196;28;103383;-58
2021/06/04 03:57:41;;;;;;;2.50;2.30;;;;;;;16.56;68.77;101414.34;4997621;28;102025;-59
2021/06/04 04:00:11;;;;;;;2.67;2.47;;;;;;;16.57;68.90;101407.72;4995289;28;102667;-58
2021/06/04 04:02:39;;;;;;;2.92;2.33;;;;;;;16.56;69.01;101402.53;4998743;28;103932;-58
2021/06/04 04:05:07;;;;;;;2.67;2.47;;;;;;;16.56;68.64;101417.09;4990632;28;103724;-58
2021/06/04 04:07:34;;;;;;;3.00;2.40;;;;;;;16.57;68.66;101415.97;4988635;28;102387;-58
2021/06/04 04:10:00;;;;;;;2.30;2.15;;;;;;;16.57;68.73;101415.97;4986729;28;102523;-59
2021/06/04 04:12:30;;;;;;;2.60;2.40;;;;;;;16.57;68.86;101412.41;4998803;28;103927;-58
2021/06/04 04:14:56;;;;;;;2.58;2.38;;;;;;;16.57;68.90;101412.41;5004480;28;102055;-58
2021/06/04 04:17:24;;;;;;;2.65;2.45;;;;;;;16.56;69.01;101411.59;4999639;28;102463;-58
2021/06/04 04:19:56;;;;;;;2.60;2.40;;;;;;;16.57;68.88;101410.47;4979167;28;102807;-58
2021/06/04 04:22:24;;;;;;;2.47;2.10;;;;;;;16.56;68.75;101403.34;5002263;28;103980;-58
2021/06/04 04:24:51;;;;;;;2.50;2.30;;;;;;;16.58;68.96;101411.28;4998015;28;102061;-58
2021/06/04 04:27:17;;;;;;;2.42;2.22;;;;;;;16.56;69.05;101403.34;4999611;28;102324;-58
2021/06/04 04:29:43;;;;;;;3.75;2.50;;;;;;;16.57;68.82;101407.72;5001121;28;102530;-58
2021/06/04 04:32:15;;;;;;;2.85;2.55;;;;;;;16.58;69.30;101419.53;4990547;28;103595;-59
2021/06/04 04:34:44;;;;;;;2.50;2.30;;;;;;;16.58;68.86;101414.03;4991018;28;102393;-58
2021/06/04 04:37:13;;;;;;;2.40;2.20;;;;;;;16.58;69.26;101403.88;4997540;28;103101;-58
2021/06/04 04:39:42;;;;;;;2.20;2.00;;;;;;;16.58;68.73;101406.59;5002258;28;102550;-58
2021/06/04 04:42:12;;;;;;;2.00;1.90;;;;;;;16.60;68.90;101405.53;4996814;28;103744;-58
2021/06/04 04:44:41;;;;;;;2.10;2.00;;;;;;;16.60;68.68;101413.75;4996228;28;102609;-58
2021/06/04 04:47:12;;;;;;;2.40;2.20;;;;;;;16.61;68.91;101407.97;4977227;28;102183;-59
2021/06/04 04:49:39;;;;;;;2.58;2.33;;;;;;;16.61;68.98;101412.63;5013947;28;103801;-59
2021/06/04 04:52:11;;;;;;;2.55;2.35;;;;;;;16.61;68.79;101423.63;4997837;28;103385;-59
2021/06/04 04:54:44;;;;;;;2.53;2.25;;;;;;;16.61;68.34;101426.38;4977401;28;102769;-58
2021/06/04 04:57:12;;;;;;;2.55;2.33;;;;;;;16.62;68.00;101422.50;4983483;28;103095;-58
2021/06/04 04:59:39;;;;;;;2.83;2.15;;;;;;;16.63;68.27;101421.41;5003312;28;102537;-58
2021/06/04 05:02:07;;;;;;;2.47;2.28;;;;;;;16.64;68.51;101421.13;5001236;28;103908;-58
2021/06/04 05:04:33;;;;;;;2.42;2.22;;;;;;;16.63;68.25;101424.16;5000788;28;103556;-61
2021/06/04 05:07:00;;;;;;;8.38;2.53;;;;;;;16.59;66.72;101421.19;5002119;28;102462;-58
2021/06/04 05:09:26;;;;;;;5.78;2.72;;;;;;;16.55;66.87;101426.47;5003407;28;102625;-58
2021/06/04 05:11:54;;;;;;;5.60;2.45;;;;;;;16.50;66.62;101434.75;5000960;28;103783;-58
2021/06/04 05:14:21;;;;;;;6.67;2.40;;;;;;;16.46;65.92;101435.63;4997748;28;102732;-58
2021/06/04 05:16:48;;;;;;;4.88;2.72;;;;;;;16.43;64.92;101433.47;4986744;28;102722;-57
2021/06/04 05:19:15;;;;;;;4.97;2.78;;;;;;;16.40;65.87;101434.88;4988879;28;102427;-58
2021/06/04 05:21:41;;;;;;;15.27;3.25;;;;;;;16.41;66.75;101438.44;5004238;28;104144;-57
2021/06/04 05:24:08;;;;;;;27.75;3.88;;;;;;;16.42;66.69;101437.34;5008646;28;102497;-57
2021/06/04 05:26:36;;;;;;;19.73;4.22;;;;;;;16.38;65.45;101437.09;4993955;28;102317;-58
2021/06/04 05:29:05;;;;;;;10.55;3.75;;;;;;;16.34;65.83;101431.38;4995842;28;102221;-58
2021/06/04 05:31:32;;;;;;;24.48;3.50;;;;;;;16.33;66.12;101437.16;5005224;28;103737;-58
2021/06/04 05:33:59;;;;;;;10.55;2.97;;;;;;;16.29;64.96;101439.66;4994959;28;102400;-58
2021/06/04 05:36:32;;;;;;;10.13;3.05;;;;;;;16.29;65.77;101438.84;5000940;28;102092;-58
2021/06/04 05:39:01;;;;;;;8.68;3.38;;;;;;;16.31;65.37;101436.63;5004262;28;102303;-58
2021/06/04 05:41:27;;;;;;;20.48;3.70;;;;;;;16.28;65.52;101439.97;5005574;28;103558;-57
2021/06/04 05:43:54;;;;;;;13.43;3.72;;;;;;;16.30;65.35;101445.97;5001287;28;102171;-58
2021/06/04 05:46:22;;;;;;;12.98;3.47;;;;;;;16.30;65.16;101445.97;4987328;28;102566;-58
2021/06/04 05:48:49;;;;;;;13.57;3.30;;;;;;;16.32;65.14;101452.00;5001161;28;103417;-58
2021/06/04 05:51:19;;;;;;;8.77;3.25;;;;;;;16.31;65.16;101450.38;4999868;28;104071;-59
2021/06/04 05:53:46;;;;;;;9.90;3.20;;;;;;;16.31;65.41;101456.69;5004285;28;102587;-58
2021/06/04 05:56:15;;;;;;;7.50;3.15;;;;;;;16.36;65.37;101447.56;4985793;28;103484;-57
2021/06/04 05:58:43;;;;;;;9.88;3.55;;;;;;;16.41;65.70;101455.75;5004880;28;102135;-58
2021/06/04 06:01:13;;;;;;;8.05;3.47;;;;;;;16.42;65.56;101460.13;4998733;28;103881;-57
2021/06/04 06:03:41;;;;;;;9.68;3.30;;;;;;;16.44;64.86;101457.88;4993005;28;103726;-57
2021/06/04 06:06:10;;;;;;;10.23;3.47;;;;;;;16.45;64.45;101459.56;5000019;28;102358;-61
2021/06/04 06:08:39;;;;;;;6.97;3.05;;;;;;;16.46;64.64;101460.38;5002439;28;102611;-57
2021/06/04 06:11:07;;;;;;;4.55;3.28;;;;;;;16.49;65.08;101460.59;5004272;28;103947;-58
2021/06/04 06:13:37;;;;;;;6.82;3.33;;;;;;;16.49;64.00;101459.78;4994769;28;102649;-57
2021/06/04 06:16:04;;;;;;;5.35;3.28;;;;;;;16.49;65.06;101457.84;4973477;28;104037;-57
2021/06/04 06:18:31;;;;;;;7.65;3.80;;;;;;;16.53;65.41;101464.38;4993475;28;102853;-58
2021/06/04 06:20:59;;;;;;;7.93;3.08;;;;;;;16.57;65.00;101462.69;4993929;28;103830;-58
2021/06/04 06:23:30;;;;;;;8.00;3.45;;;;;;;16.58;65.24;101461.56;4991548;28;102595;-57
2021/06/04 06:26:01;;;;;;;8.63;3.55;;;;;;;16.60;64.13;101461.28;4983783;28;102875;-57
2021/06/04 06:28:33;;;;;;;5.68;3.55;;;;;;;16.64;64.86;101465.09;4987233;28;106193;-58
2021/06/04 06:31:02;;;;;;;4.72;3.00;;;;;;;16.66;64.87;101464.78;4980358;28;103855;-57
2021/06/04 06:33:28;;;;;;;9.65;3.50;;;;;;;16.64;64.40;101464.28;5006158;28;102445;-58
2021/06/04 06:35:59;;;;;;;7.07;2.85;;;;;;;16.65;64.49;101463.16;4994266;28;102347;-58
2021/06/04 06:38:28;;;;;;;5.95;3.25;;;;;;;16.64;64.17;101465.09;4987315;28;103250;-58
2021/06/04 06:40:56;;;;;;;5.82;3.35;;;;;;;16.64;64.84;101461.53;4986942;28;103921;-58
2021/06/04 06:43:26;;;;;;;5.95;3.35;;;;;;;16.63;64.17;101470.88;4992052;28;102706;-58
2021/06/04 06:45:53;;;;;;;4.00;2.92;;;;;;;16.65;64.77;101474.16;4999000;28;102571;-57
2021/06/04 06:48:20;;;;;;;3.80;3.33;;;;;;;16.68;65.08;101468.88;4967630;28;105837;-58
2021/06/04 06:50:47;;;;;;;4.70;3.00;;;;;;;16.68;64.68;101468.88;4993215;28;103892;-58
2021/06/04 06:53:16;;;;;;;7.18;3.60;;;;;;;16.69;64.52;101473.25;5005280;28;102178;-58
2021/06/04 06:55:44;;;;;;;5.75;3.10;;;;;;;16.72;64.13;101478.16;5004040;28;102388;-58
2021/06/04 06:58:13;;;;;;;8.90;3.10;;;;;;;16.73;64.74;101465.25;4985514;28;102245;-58
2021/06/04 07:00:45;;;;;;;4.55;3.17;;;;;;;16.76;64.72;101475.69;4986456;28;104370;-57
2021/06/04 07:03:14;;;;;;;7.55;3.15;;;;;;;16.79;64.51;101464.91;4991407;28;102386;-58
2021/06/04 07:05:42;;;;;;;6.28;3.38;;;;;;;16.84;63.96;101477.78;5002193;28;102741;-57
2021/06/04 07:08:11;;;;;;;3.95;3.42;;;;;;;16.85;63.89;101473.13;4980295;28;103174;-57
2021/06/04 07:10:39;;;;;;;9.52;3.53;;;;;;;16.88;63.64;101465.09;4985932;28;103778;-58
2021/06/04 07:13:08;;;;;;;6.45;3.30;;;;;;;16.97;62.87;101460.56;5003718;28;102528;-57
2021/06/04 07:15:35;;;;;;;8.35;3.17;;;;;;;17.07;63.50;101470.59;4976786;28;102615;-58
2021/06/04 07:18:03;;;;;;;3.87;2.77;;;;;;;17.17;63.15;101464.13;4996045;28;103233;-57
2021/06/04 07:20:34;;;;;;;9.18;3.25;;;;;;;17.24;63.48;101456.34;4982303;28;103865;-58
2021/06/04 07:23:03;;;;;;;12.15;3.38;;;;;;;17.34;63.39;101458.91;4996693;28;102656;-58
2021/06/04 07:25:32;;;;;;;4.50;2.70;;;;;;;17.41;63.28;101464.84;4993528;28;102745;-57
2021/06/04 07:28:00;;;;;;;3.67;3.08;;;;;;;17.43;62.79;101470.88;4980193;28;102670;-57
2021/06/04 07:30:30;;;;;;;5.00;2.97;;;;;;;17.45;62.56;101468.63;5005345;28;103916;-58
2021/06/04 07:33:01;;;;;;;5.63;3.65;;;;;;;17.47;62.38;101463.66;5001875;28;102710;-58
2021/06/04 07:35:29;;;;;;;5.05;2.95;;;;;;;17.56;61.93;101471.22;4985061;28;102637;-56
2021/06/04 07:37:56;;;;;;;12.30;2.75;;;;;;;17.56;61.86;101473.97;5006201;28;102179;-57
2021/06/04 07:40:28;;;;;;;6.00;2.75;;;;;;;17.56;60.56;101474.78;5006585;28;103193;-58
2021/06/04 07:42:55;;;;;;;5.53;2.92;;;;;;;17.58;62.01;101474.50;5005503;28;102097;-57
2021/06/04 07:45:28;;;;;;;8.05;3.25;;;;;;;17.63;61.04;101477.16;5004080;28;102496;-57
2021/06/04 07:47:54;;;;;;;7.25;2.95;;;;;;;17.64;60.61;101476.06;4994119;28;102657;-57
2021/06/04 07:50:21;;;;;;;6.25;2.70;;;;;;;17.68;59.90;101479.84;4988201;28;104061;-58
2021/06/04 07:52:49;;;;;;;5.22;2.30;;;;;;;17.66;60.18;101473.81;4992908;28;103355;-58
2021/06/04 07:55:16;;;;;;;3.03;2.20;;;;;;;17.66;60.91;101474.63;4992557;28;102352;-58
2021/06/04 07:57:44;;;;;;;8.98;3.72;;;;;;;17.68;60.86;101463.34;5003220;28;102431;-58
2021/06/04 08:00:16;;;;;;;5.45;3.00;;;;;;;17.69;61.13;101464.97;5005800;28;102380;-58
2021/06/04 08:02:44;;;;;;;7.82;2.80;;;;;;;17.70;60.63;101472.09;4980374;28;102265;-57
2021/06/04 08:05:12;;;;;;;5.70;3.00;;;;;;;17.70;60.73;101469.34;4997514;28;102634;-57
2021/06/04 08:07:39;;;;;;;5.40;2.95;;;;;;;17.73;60.69;101471.50;5000248;28;103014;-57
2021/06/04 08:10:08;;;;;;;6.35;2.70;;;;;;;17.80;61.59;101466.44;4983786;28;103908;-57
2021/06/04 08:12:34;;;;;;;9.80;2.67;;;;;;;17.82;60.94;101469.72;4995872;28;103229;-58
2021/06/04 08:15:06;;;;;;;6.97;2.55;;;;;;;17.86;60.88;101459.75;4999670;28;103990;-57
2021/06/04 08:17:32;;;;;;;10.95;3.03;;;;;;;17.90;61.62;101471.78;4998978;28;103431;-58
2021/06/04 08:20:02;;;;;;;12.63;2.92;;;;;;;17.98;60.85;101468.31;4994994;28;102769;-58
2021/06/04 08:22:32;;;;;;;5.75;2.90;;;;;;;18.04;60.07;101477.31;4992102;28;102719;-58
2021/06/04 08:24:59;;;;;;;3.70;2.35;;;;;;;18.07;59.08;101470.38;4999797;28;102549;-58
2021/06/04 08:27:26;;;;;;;9.88;2.42;;;;;;;18.13;59.37;101471.91;5005680;28;102133;-58
2021/06/04 08:29:54;;;;;;;11.25;2.85;;;;;;;18.15;59.66;101462.25;5005120;28;103921;-59
2021/06/04 08:32:20;;;;;;;5.80;2.35;;;;;;;18.19;59.54;101467.97;5003343;28;102458;-60
2021/06/04 08:34:47;;;;;;;7.82;2.22;;;;;;;18.16;59.33;101463.06;5004032;28;102241;-59
2021/06/04 08:37:16;;;;;;;2.67;1.97;;;;;;;18.15;58.77;101469.69;5006760;28;102207;-59
2021/06/04 08:39:44;;;;;;;15.18;3.10;;;;;;;18.23;59.13;101464.28;4998689;28;103188;-59
2021/06/04 08:42:30;;;;;;;27.75;4.25;;;;;;;18.19;56.59;101468.78;5000645;28;102378;-59
2021/06/04 08:45:16;;;;;;;14.40;3.60;;;;;;;18.20;57.95;101469.59;5003020;28;102199;-59
2021/06/04 08:47:48;;;;;;;18.05;3.38;;;;;;;18.15;57.80;101466.94;4969982;28;103370;-59
2021/06/04 08:50:26;;;;;;;6.03;2.30;;;;;;;18.10;56.71;101472.53;5001698;28;103636;-59
2021/06/04 08:52:59;;;;;;;7.78;2.33;;;;;;;18.04;56.89;101480.09;4998263;28;102735;-59
2021/06/04 08:55:36;;;;;;;6.80;2.33;;;;;;;18.04;55.48;101479.28;4989074;28;102547;-59
2021/06/04 08:58:18;;;;;;;8.25;1.90;;;;;;;17.97;56.65;101479.66;4993819;28;102827;-59
2021/06/04 09:00:53;;;;;;;4.28;1.98;;;;;;;17.95;56.97;101485.44;4995444;28;103941;-59
2021/06/04 09:03:23;;;;;;;6.40;2.10;;;;;;;17.92;56.58;101491.59;5001119;28;103670;-59
2021/06/04 09:05:53;;;;;;;10.27;2.53;;;;;;;17.90;56.88;101496.56;5002484;28;103043;-59
2021/06/04 09:08:26;;;;;;;5.72;2.25;;;;;;;17.89;56.94;101485.88;4969204;28;103589;-60
2021/06/04 09:10:56;;;;;;;5.65;2.10;;;;;;;17.85;57.15;101485.66;4984106;28;103837;-59
2021/06/04 09:13:26;;;;;;;4.28;2.10;;;;;;;17.85;57.38;101493.91;4996450;28;102571;-60
2021/06/04 09:16:01;;;;;;;5.10;2.10;;;;;;;17.82;57.23;101489.00;4999598;28;102524;-60
2021/06/04 09:18:38;;;;;;;5.35;2.13;;;;;;;17.79;57.69;101495.09;5008440;28;102146;-59
2021/06/04 09:21:07;;;;;;;21.15;3.40;;;;;;;17.75;57.65;101497.66;4983904;28;104153;-59
2021/06/04 09:23:37;;;;;;;26.63;3.47;;;;;;;17.77;57.97;101487.13;5002091;28;102538;-59
2021/06/04 09:26:06;;;;;;;11.88;2.40;;;;;;;17.77;57.75;101494.56;5004411;28;102140;-59
2021/06/04 09:28:34;;;;;;;12.18;2.88;;;;;;;17.79;58.21;101484.09;5002739;28;102500;-59
2021/06/04 09:31:21;;;;;;;9.02;2.20;;;;;;;17.83;58.27;101487.88;4991674;28;103893;-59
2021/06/04 09:33:50;;;;;;;6.93;2.38;;;;;;;17.92;57.22;101480.56;4985417;28;103282;-59
2021/06/04 09:36:17;;;;;;;;;;;;;;;17.98;56.10;101490.34;4999150;28;102191;-59
2021/06/04 09:38:48;;;;;;;3.05;1.98;;;;;;;17.99;56.08;101481.00;4996437;28;103234;-59
2021/06/04 09:41:34;;;;;;;13.85;2.20;;;;;;;18.00;56.43;101488.13;4993642;28;103871;-59
2021/06/04 09:44:12;;;;;;;6.00;1.85;;;;;;;18.02;56.68;101485.06;4995331;28;102731;-59
2021/06/04 09:46:42;;;;;;;5.38;2.00;;;;;;;17.99;56.75;101483.75;4999549;28;102279;-59
2021/06/04 09:49:09;;;;;;;3.20;2.38;;;;;;;17.96;56.93;101483.53;4976897;28;102448;-59
2021/06/04 09:51:38;;;;;;;4.80;2.03;;;;;;;17.94;56.71;101492.09;4986451;28;103919;-59
2021/06/04 09:54:25;;;;;;;5.70;2.28;;;;;;;17.94;56.67;101483.81;4990293;28;102599;-59
2021/06/04 09:57:06;;;;;;;2.95;2.00;;;;;;;17.90;56.25;101493.00;5004541;28;106367;-59
2021/06/04 09:59:33;;;;;;;3.70;1.88;;;;;;;17.87;57.22;101488.91;4995374;28;102621;-59
2021/06/04 10:02:00;;;;;;;2.60;1.90;;;;;;;17.86;56.76;101492.78;4997923;28;104283;-59
2021/06/04 10:04:30;;;;;;;6.82;2.20;;;;;;;17.84;56.99;101484.00;4981754;28;104259;-59
2021/06/04 10:07:03;;;;;;;5.70;2.42;;;;;;;17.85;57.30;101491.16;4996222;28;102692;-60
2021/06/04 10:09:39;;;;;;;2.97;1.98;;;;;;;17.85;56.93;101490.31;4988836;28;102588;-59
2021/06/04 10:12:09;;;;;;;3.67;2.35;;;;;;;17.85;57.00;101496.66;4997858;28;104023;-59
2021/06/04 10:14:49;;;;;;;3.58;1.90;;;;;;;17.84;55.49;101489.50;5002283;28;102153;-59
2021/06/04 10:17:40;;;;;;;6.00;2.22;;;;;;;17.86;54.63;101486.47;5002117;28;103062;-59
2021/06/04 10:20:28;;;;;;;9.00;3.03;;;;;;;17.86;54.89;101480.97;5007557;28;102766;-59
2021/06/04 10:23:06;;;;;;;4.47;2.08;;;;;;;17.87;54.98;101488.91;4997062;28;103848;-59
2021/06/04 10:25:57;;;;;;;9.17;2.43;;;;;;;17.89;55.01;101492.19;4985821;28;102564;-59
2021/06/04 10:28:43;;;;;;;13.05;2.55;;;;;;;17.90;54.95;101493.81;4980206;28;102558;-61
2021/06/04 10:31:37;;;;;;;12.52;2.35;;;;;;;17.91;54.92;101486.38;4991083;28;102507;-61
2021/06/04 10:34:20;;;;;;;15.32;2.90;;;;;;;17.90;54.81;101488.31;4998768;28;104106;-61
2021/06/04 10:36:53;;;;;;;8.02;2.70;;;;;;;17.92;54.73;101486.09;4997421;28;102396;-61
2021/06/04 10:39:31;;;;;;;5.68;2.78;;;;;;;17.91;54.82;101481.66;5003475;28;102160;-61
2021/06/04 10:42:14;;;;;;;9.65;3.30;;;;;;;17.92;54.06;101480.56;4987068;28;102575;-61
2021/06/04 10:44:50;;;;;;;7.50;3.05;;;;;;;17.93;55.30;101493.22;5001539;28;103766;-63
2021/06/04 10:47:27;;;;;;;7.03;2.83;;;;;;;17.99;54.33;101489.25;5003309;28;103503;-61
2021/06/04 10:50:09;;;;;;;17.42;3.33;;;;;;;18.05;53.67;101489.16;5001574;28;102593;-61
2021/06/04 10:52:50;;;;;;;8.30;1.98;;;;;;;18.10;54.16;101486.28;5004603;28;102358;-61
2021/06/04 10:55:25;;;;;;;11.15;2.20;;;;;;;18.21;55.11;101487.75;4973575;28;103488;-58
2021/06/04 10:58:06;;;;;;;16.55;2.75;;;;;;;18.24;53.55;101487.13;4978159;28;102251;-62
2021/06/04 11:00:40;;;;;;;9.10;2.45;;;;;;;18.28;50.64;101479.06;4996835;28;102714;-61
2021/06/04 11:03:12;;;;;;;10.90;2.35;;;;;;;18.23;50.96;101480.00;4983578;28;102107;-60
2021/06/04 11:05:55;;;;;;;11.40;2.97;;;;;;;18.10;52.84;101486.28;5003011;28;104079;-61
2021/06/04 11:08:46;;;;;;;9.20;2.35;;;;;;;17.96;53.90;101483.53;4992235;28;102561;-60
2021/06/04 11:11:31;;;;;;;7.25;2.53;;;;;;;17.85;55.99;101491.16;4992794;28;102788;-60
2021/06/04 11:14:12;;;;;;;8.77;2.45;;;;;;;17.77;56.59;101500.09;5001951;28;102623;-61
2021/06/04 11:17:06;;;;;;;5.93;2.55;;;;;;;17.71;57.28;101495.78;4977835;28;104939;-61
2021/06/04 11:19:37;;;;;;;4.13;2.10;;;;;;;17.66;57.69;101487.56;5004340;28;102277;-60
2021/06/04 11:22:08;;;;;;;7.68;2.42;;;;;;;17.63;58.28;101499.19;4999166;28;103272;-61
2021/06/04 11:24:45;;;;;;;6.13;2.35;;;;;;;17.60;58.98;101483.25;4996349;28;102113;-61
2021/06/04 11:27:19;;;;;;;5.28;2.30;;;;;;;17.57;59.23;101489.41;4998433;28;103725;-61
2021/06/04 11:29:48;;;;;;;5.88;2.50;;;;;;;17.54;59.59;101483.34;5007950;28;102036;-61
2021/06/04 11:32:19;;;;;;;4.10;2.50;;;;;;;17.52;59.66;101485.59;4974834;28;102371;-61
2021/06/04 11:34:54;;;;;;;4.38;2.50;;;;;;;17.50;59.79;101487.84;5001106;28;102562;-61
2021/06/04 11:37:33;;;;;;;7.50;3.20;;;;;;;17.48;60.10;101487.31;4998631;28;103921;-60